sensor_id;sensor_type;location;lat;lon;timestamp;pressure;altitude;pressure_sealevel;temperature;humidity
48015;BME280;33780;51.034;7.120;2022-10-31T00:01:58;101296.22;;;13.70;71.86
48015;BME280;33780;51.034;7.120;2022-10-31T00:04:23;101295.38;;;13.69;71.99
48015;BME280;33780;51.034;7.120;2022-10-31T00:06:48;101293.81;;;13.67;71.64
48015;BME280;33780;51.034;7.120;2022-10-31T00:09:14;101293.94;;;13.65;71.57
48015;BME280;33780;51.034;7.120;2022-10-31T00:11:39;101298.59;;;13.63;71.51
48015;BME280;33780;51.034;7.120;2022-10-31T00:14:04;101293.34;;;13.61;71.86
48015;BME280;33780;51.034;7.120;2022-10-31T00:16:30;101294.47;;;13.59;71.87
48015;BME280;33780;51.034;7.120;2022-10-31T00:18:57;101296.31;;;13.58;71.67
48015;BME280;33780;51.034;7.120;2022-10-31T00:21:26;101295.59;;;13.56;71.64
48015;BME280;33780;51.034;7.120;2022-10-31T00:23:52;101305.66;;;13.54;71.68
48015;BME280;33780;51.034;7.120;2022-10-31T00:26:18;101304.09;;;13.52;71.88
48015;BME280;33780;51.034;7.120;2022-10-31T00:28:43;101307.75;;;13.51;71.76
48015;BME280;33780;51.034;7.120;2022-10-31T00:31:10;101299.84;;;13.49;71.77
48015;BME280;33780;51.034;7.120;2022-10-31T00:33:37;101288.38;;;13.47;71.70
48015;BME280;33780;51.034;7.120;2022-10-31T00:36:04;101295.59;;;13.47;71.88
48015;BME280;33780;51.034;7.120;2022-10-31T00:38:30;101289.47;;;13.45;71.64
48015;BME280;33780;51.034;7.120;2022-10-31T00:40:55;101287.75;;;13.44;71.80
48015;BME280;33780;51.034;7.120;2022-10-31T00:43:21;101286.91;;;13.43;71.96
48015;BME280;33780;51.034;7.120;2022-10-31T00:45:46;101281.69;;;13.42;71.98
48015;BME280;33780;51.034;7.120;2022-10-31T00:48:12;101275.59;;;13.40;72.05
48015;BME280;33780;51.034;7.120;2022-10-31T00:50:40;101287.34;;;13.39;72.10
48015;BME280;33780;51.034;7.120;2022-10-31T00:53:06;101300.91;;;13.37;72.18
48015;BME280;33780;51.034;7.120;2022-10-31T00:55:31;101304.44;;;13.38;71.86
48015;BME280;33780;51.034;7.120;2022-10-31T00:57:57;101312.66;;;13.36;72.20
48015;BME280;33780;51.034;7.120;2022-10-31T01:00:22;101314.50;;;13.36;71.77
48015;BME280;33780;51.034;7.120;2022-10-31T01:02:48;101328.06;;;13.34;72.21
48015;BME280;33780;51.034;7.120;2022-10-31T01:05:13;101326.38;;;13.33;72.08
48015;BME280;33780;51.034;7.120;2022-10-31T01:07:40;101317.47;;;13.33;72.04
48015;BME280;33780;51.034;7.120;2022-10-31T01:10:06;101313.91;;;13.32;72.44
48015;BME280;33780;51.034;7.120;2022-10-31T01:12:37;101323.97;;;13.30;72.38
48015;BME280;33780;51.034;7.120;2022-10-31T01:15:03;101320.41;;;13.29;72.54
48015;BME280;33780;51.034;7.120;2022-10-31T01:17:28;101323.09;;;13.29;72.31
48015;BME280;33780;51.034;7.120;2022-10-31T01:19:54;101313.34;;;13.28;72.15
48015;BME280;33780;51.034;7.120;2022-10-31T01:22:20;101302.59;;;13.28;72.31
48015;BME280;33780;51.034;7.120;2022-10-31T01:24:45;101296.47;;;13.26;72.33
48015;BME280;33780;51.034;7.120;2022-10-31T01:27:10;101299.28;;;13.25;72.28
48015;BME280;33780;51.034;7.120;2022-10-31T01:29:36;101298.59;;;13.23;72.19
48015;BME280;33780;51.034;7.120;2022-10-31T01:32:01;101292.34;;;13.22;72.51
48015;BME280;33780;51.034;7.120;2022-10-31T01:34:26;101288.09;;;13.20;72.04
48015;BME280;33780;51.034;7.120;2022-10-31T01:36:52;101287.25;;;13.19;72.77
48015;BME280;33780;51.034;7.120;2022-10-31T01:39:18;101278.34;;;13.19;72.51
48015;BME280;33780;51.034;7.120;2022-10-31T01:41:47;101267.59;;;13.19;72.58
48015;BME280;33780;51.034;7.120;2022-10-31T01:46:43;101274.91;;;13.17;72.67
48015;BME280;33780;51.034;7.120;2022-10-31T01:49:15;101266.97;;;13.15;72.11
48015;BME280;33780;51.034;7.120;2022-10-31T01:51:46;101267.13;;;13.14;72.80
48015;BME280;33780;51.034;7.120;2022-10-31T01:54:15;101262.72;;;13.13;72.14
48015;BME280;33780;51.034;7.120;2022-10-31T01:56:45;101255.66;;;13.12;72.33
48015;BME280;33780;51.034;7.120;2022-10-31T01:59:13;101252.22;;;13.10;72.64
48015;BME280;33780;51.034;7.120;2022-10-31T02:01:40;101265.81;;;13.08;72.92
48015;BME280;33780;51.034;7.120;2022-10-31T02:04:06;101255.91;;;13.09;72.90
48015;BME280;33780;51.034;7.120;2022-10-31T02:06:46;101254.34;;;13.06;72.57
48015;BME280;33780;51.034;7.120;2022-10-31T02:09:14;101253.34;;;13.07;72.74
48015;BME280;33780;51.034;7.120;2022-10-31T02:11:41;101248.13;;;13.06;73.25
48015;BME280;33780;51.034;7.120;2022-10-31T02:14:07;101253.50;;;13.06;72.78
48015;BME280;33780;51.034;7.120;2022-10-31T02:16:33;101253.63;;;13.04;72.64
48015;BME280;33780;51.034;7.120;2022-10-31T02:18:58;101251.94;;;13.03;72.53
48015;BME280;33780;51.034;7.120;2022-10-31T02:32:50;101252.84;;;12.92;72.55
48015;BME280;33780;51.034;7.120;2022-10-31T02:38:26;101264.84;;;12.88;72.87
48015;BME280;33780;51.034;7.120;2022-10-31T02:46:23;101279.69;;;12.83;72.87
48015;BME280;33780;51.034;7.120;2022-10-31T02:48:52;101277.13;;;12.81;72.67
48015;BME280;33780;51.034;7.120;2022-10-31T02:51:20;101269.22;;;12.80;72.68
48015;BME280;33780;51.034;7.120;2022-10-31T02:53:45;101270.19;;;12.79;72.81
48015;BME280;33780;51.034;7.120;2022-10-31T02:56:14;101278.38;;;12.77;72.71
48015;BME280;33780;51.034;7.120;2022-10-31T03:04:57;101290.34;;;12.73;72.68
48015;BME280;33780;51.034;7.120;2022-10-31T03:07:33;101291.47;;;12.70;72.74
48015;BME280;33780;51.034;7.120;2022-10-31T03:12:40;101285.38;;;12.68;72.84
48015;BME280;33780;51.034;7.120;2022-10-31T03:15:36;101287.34;;;12.66;72.97
48015;BME280;33780;51.034;7.120;2022-10-31T03:18:14;101282.97;;;12.65;73.08
48015;BME280;33780;51.034;7.120;2022-10-31T03:20:49;101275.88;;;12.64;73.13
48015;BME280;33780;51.034;7.120;2022-10-31T03:23:18;101283.94;;;12.64;73.22
48015;BME280;33780;51.034;7.120;2022-10-31T03:25:45;101278.72;;;12.63;73.12
48015;BME280;33780;51.034;7.120;2022-10-31T03:28:14;101280.53;;;12.62;73.33
48015;BME280;33780;51.034;7.120;2022-10-31T03:30:42;101284.09;;;12.63;73.15
48015;BME280;33780;51.034;7.120;2022-10-31T03:33:15;101273.47;;;12.61;73.14
48015;BME280;33780;51.034;7.120;2022-10-31T03:35:44;101284.34;;;12.60;73.13
48015;BME280;33780;51.034;7.120;2022-10-31T03:38:12;101283.50;;;12.59;73.23
48015;BME280;33780;51.034;7.120;2022-10-31T03:40:40;101276.28;;;12.60;73.58
48015;BME280;33780;51.034;7.120;2022-10-31T03:43:10;101274.59;;;12.59;73.23
48015;BME280;33780;51.034;7.120;2022-10-31T03:45:41;101274.72;;;12.57;73.48
48015;BME280;33780;51.034;7.120;2022-10-31T03:48:09;101265.69;;;12.58;73.69
48015;BME280;33780;51.034;7.120;2022-10-31T03:53:39;101271.56;;;12.52;73.88
48015;BME280;33780;51.034;7.120;2022-10-31T03:56:34;101281.44;;;12.52;73.93
48015;BME280;33780;51.034;7.120;2022-10-31T03:59:08;101279.75;;;12.51;73.70
48015;BME280;33780;51.034;7.120;2022-10-31T04:01:41;101277.06;;;12.51;73.90
48015;BME280;33780;51.034;7.120;2022-10-31T04:04:08;101278.19;;;12.48;73.98
48015;BME280;33780;51.034;7.120;2022-10-31T04:06:36;101267.31;;;12.50;73.68
48015;BME280;33780;51.034;7.120;2022-10-31T04:09:04;101270.13;;;12.48;73.67
48015;BME280;33780;51.034;7.120;2022-10-31T04:11:41;101270.97;;;12.49;73.97
48015;BME280;33780;51.034;7.120;2022-10-31T04:14:09;101271.09;;;12.47;73.94
48015;BME280;33780;51.034;7.120;2022-10-31T04:16:36;101275.38;;;12.50;73.98
48015;BME280;33780;51.034;7.120;2022-10-31T04:19:02;101269.13;;;12.49;73.75
48015;BME280;33780;51.034;7.120;2022-10-31T04:21:29;101263.78;;;12.49;74.20
48015;BME280;33780;51.034;7.120;2022-10-31T04:23:55;101270.00;;;12.50;74.01
48015;BME280;33780;51.034;7.120;2022-10-31T04:26:20;101266.31;;;12.51;73.94
48015;BME280;33780;51.034;7.120;2022-10-31T04:28:46;101270.00;;;12.50;73.79
48015;BME280;33780;51.034;7.120;2022-10-31T04:31:11;101266.47;;;12.49;74.04
48015;BME280;33780;51.034;7.120;2022-10-31T04:33:37;101266.59;;;12.48;74.24
48015;BME280;33780;51.034;7.120;2022-10-31T04:36:03;101270.13;;;12.48;74.25
48015;BME280;33780;51.034;7.120;2022-10-31T04:38:29;101262.19;;;12.47;73.86
48015;BME280;33780;51.034;7.120;2022-10-31T04:40:55;101260.50;;;12.46;73.92
48015;BME280;33780;51.034;7.120;2022-10-31T04:43:20;101263.31;;;12.44;73.72
48015;BME280;33780;51.034;7.120;2022-10-31T04:45:45;101266.13;;;12.43;74.06
48015;BME280;33780;51.034;7.120;2022-10-31T04:48:11;101262.72;;;12.40;73.96
48015;BME280;33780;51.034;7.120;2022-10-31T04:50:36;101264.56;;;12.40;74.07
48015;BME280;33780;51.034;7.120;2022-10-31T04:53:02;101257.50;;;12.39;74.30
48015;BME280;33780;51.034;7.120;2022-10-31T04:55:27;101248.56;;;12.38;73.96
48015;BME280;33780;51.034;7.120;2022-10-31T04:57:52;101254.91;;;12.37;74.26
48015;BME280;33780;51.034;7.120;2022-10-31T05:00:19;101252.22;;;12.37;74.17
48015;BME280;33780;51.034;7.120;2022-10-31T05:02:46;101246.88;;;12.37;74.42
48015;BME280;33780;51.034;7.120;2022-10-31T05:05:13;101247.72;;;12.38;73.90
48015;BME280;33780;51.034;7.120;2022-10-31T05:07:43;101244.19;;;12.37;74.36
48015;BME280;33780;51.034;7.120;2022-10-31T05:10:11;101235.28;;;12.37;74.46
48015;BME280;33780;51.034;7.120;2022-10-31T05:12:37;101233.44;;;12.37;74.40
48015;BME280;33780;51.034;7.120;2022-10-31T05:15:03;101237.97;;;12.37;74.01
48015;BME280;33780;51.034;7.120;2022-10-31T05:17:30;101240.78;;;12.35;74.06
48015;BME280;33780;51.034;7.120;2022-10-31T05:19:56;101231.03;;;12.34;74.52
48015;BME280;33780;51.034;7.120;2022-10-31T05:22:21;101225.66;;;12.34;74.20
48015;BME280;33780;51.034;7.120;2022-10-31T05:24:47;101222.97;;;12.34;74.62
48015;BME280;33780;51.034;7.120;2022-10-31T05:27:12;101227.50;;;12.34;74.26
48015;BME280;33780;51.034;7.120;2022-10-31T05:29:37;101215.91;;;12.33;74.12
48015;BME280;33780;51.034;7.120;2022-10-31T05:32:02;101217.88;;;12.31;74.39
48015;BME280;33780;51.034;7.120;2022-10-31T05:34:28;101209.97;;;12.30;74.28
48015;BME280;33780;51.034;7.120;2022-10-31T05:36:53;101217.28;;;12.28;74.17
48015;BME280;33780;51.034;7.120;2022-10-31T05:39:18;101224.50;;;12.27;74.15
48015;BME280;33780;51.034;7.120;2022-10-31T05:41:44;101221.09;;;12.25;74.35
48015;BME280;33780;51.034;7.120;2022-10-31T05:44:09;101218.53;;;12.24;74.01
48015;BME280;33780;51.034;7.120;2022-10-31T05:46:34;101214.16;;;12.23;74.19
48015;BME280;33780;51.034;7.120;2022-10-31T05:48:59;101209.88;;;12.20;73.93
48015;BME280;33780;51.034;7.120;2022-10-31T05:51:25;101210.00;;;12.19;73.78
48015;BME280;33780;51.034;7.120;2022-10-31T05:53:50;101209.28;;;12.17;74.13
48015;BME280;33780;51.034;7.120;2022-10-31T05:56:15;101205.75;;;12.16;74.01
48015;BME280;33780;51.034;7.120;2022-10-31T05:58:40;101208.69;;;12.13;73.94
48015;BME280;33780;51.034;7.120;2022-10-31T06:01:06;101207.84;;;12.13;74.17
48015;BME280;33780;51.034;7.120;2022-10-31T06:03:31;101207.13;;;12.10;73.94
48015;BME280;33780;51.034;7.120;2022-10-31T06:05:56;101206.41;;;12.08;73.79
48015;BME280;33780;51.034;7.120;2022-10-31T06:08:22;101202.88;;;12.08;73.92
48015;BME280;33780;51.034;7.120;2022-10-31T06:10:47;101197.66;;;12.06;73.66
48015;BME280;33780;51.034;7.120;2022-10-31T06:13:12;101204.00;;;12.05;73.95
48015;BME280;33780;51.034;7.120;2022-10-31T06:15:38;101210.47;;;12.03;73.67
48015;BME280;33780;51.034;7.120;2022-10-31T06:18:04;101206.91;;;12.02;73.89
48015;BME280;33780;51.034;7.120;2022-10-31T06:20:31;101210.56;;;12.01;73.53
48015;BME280;33780;51.034;7.120;2022-10-31T06:22:56;101213.38;;;12.00;73.96
48015;BME280;33780;51.034;7.120;2022-10-31T06:25:21;101209.00;;;11.99;73.77
48015;BME280;33780;51.034;7.120;2022-10-31T06:27:47;101211.81;;;11.97;73.77
48015;BME280;33780;51.034;7.120;2022-10-31T06:30:12;101219.03;;;11.97;73.68
48015;BME280;33780;51.034;7.120;2022-10-31T06:32:38;101211.22;;;11.94;73.62
48015;BME280;33780;51.034;7.120;2022-10-31T06:35:03;101214.91;;;11.93;73.82
48015;BME280;33780;51.034;7.120;2022-10-31T06:37:28;101214.91;;;11.93;73.84
48015;BME280;33780;51.034;7.120;2022-10-31T06:39:54;101213.19;;;11.92;73.51
48015;BME280;33780;51.034;7.120;2022-10-31T06:42:19;101212.34;;;11.91;74.04
48015;BME280;33780;51.034;7.120;2022-10-31T06:44:44;101219.41;;;11.92;74.05
48015;BME280;33780;51.034;7.120;2022-10-31T06:47:10;101214.03;;;11.92;74.22
48015;BME280;33780;51.034;7.120;2022-10-31T06:49:35;101221.97;;;11.94;74.26
48015;BME280;33780;51.034;7.120;2022-10-31T06:52:00;101227.31;;;11.94;74.30
48015;BME280;33780;51.034;7.120;2022-10-31T06:54:26;101217.44;;;11.94;74.32
48015;BME280;33780;51.034;7.120;2022-10-31T06:56:52;101222.69;;;11.96;74.19
48015;BME280;33780;51.034;7.120;2022-10-31T06:59:17;101219.03;;;11.97;74.47
48015;BME280;33780;51.034;7.120;2022-10-31T07:01:43;101219.75;;;11.99;74.29
48015;BME280;33780;51.034;7.120;2022-10-31T07:04:11;101224.13;;;12.00;74.07
48015;BME280;33780;51.034;7.120;2022-10-31T07:06:37;101215.94;;;12.01;74.56
48015;BME280;33780;51.034;7.120;2022-10-31T07:09:03;101223.75;;;12.04;74.29
48015;BME280;33780;51.034;7.120;2022-10-31T07:11:28;101221.94;;;12.05;74.35
48015;BME280;33780;51.034;7.120;2022-10-31T07:13:54;101212.03;;;12.05;74.27
48015;BME280;33780;51.034;7.120;2022-10-31T07:16:19;101212.91;;;12.06;74.45
48015;BME280;33780;51.034;7.120;2022-10-31T07:18:44;101206.41;;;12.08;74.87
48015;BME280;33780;51.034;7.120;2022-10-31T07:21:09;101208.13;;;12.09;74.67
48015;BME280;33780;51.034;7.120;2022-10-31T07:23:35;101199.94;;;12.11;74.89
48015;BME280;33780;51.034;7.120;2022-10-31T07:26:00;101200.78;;;12.12;75.01
48015;BME280;33780;51.034;7.120;2022-10-31T07:28:26;101207.72;;;12.14;75.00
48015;BME280;33780;51.034;7.120;2022-10-31T07:30:53;101207.47;;;12.17;75.20
48015;BME280;33780;51.034;7.120;2022-10-31T07:33:19;101214.38;;;12.20;75.21
48015;BME280;33780;51.034;7.120;2022-10-31T07:35:45;101216.84;;;12.23;75.31
48015;BME280;33780;51.034;7.120;2022-10-31T07:38:12;101221.94;;;12.26;75.62
48015;BME280;33780;51.034;7.120;2022-10-31T07:40:39;101222.41;;;12.31;75.60
48015;BME280;33780;51.034;7.120;2022-10-31T07:43:07;101229.31;;;12.33;75.58
48015;BME280;33780;51.034;7.120;2022-10-31T07:45:33;101222.84;;;12.36;75.36
48015;BME280;33780;51.034;7.120;2022-10-31T07:47:58;101236.03;;;12.39;75.83
48015;BME280;33780;51.034;7.120;2022-10-31T07:50:28;101241.97;;;12.43;75.88
48015;BME280;33780;51.034;7.120;2022-10-31T07:53:08;101231.81;;;12.46;75.91
48015;BME280;33780;51.034;7.120;2022-10-31T07:55:33;101240.47;;;12.50;75.82
48015;BME280;33780;51.034;7.120;2022-10-31T07:58:01;101233.13;;;12.52;75.90
48015;BME280;33780;51.034;7.120;2022-10-31T08:00:26;101233.84;;;12.54;76.05
48015;BME280;33780;51.034;7.120;2022-10-31T08:05:23;101236.88;;;12.60;76.11
48015;BME280;33780;51.034;7.120;2022-10-31T08:07:48;101239.28;;;12.63;76.38
48015;BME280;33780;51.034;7.120;2022-10-31T08:10:14;101240.84;;;12.66;75.79
48015;BME280;33780;51.034;7.120;2022-10-31T08:12:39;101244.97;;;12.70;75.99
48015;BME280;33780;51.034;7.120;2022-10-31T08:15:05;101244.81;;;12.71;76.23
48015;BME280;33780;51.034;7.120;2022-10-31T08:17:35;101246.28;;;12.76;76.28
48015;BME280;33780;51.034;7.120;2022-10-31T08:20:04;101238.94;;;12.78;76.20
48015;BME280;33780;51.034;7.120;2022-10-31T08:22:30;101246.88;;;12.79;76.15
48015;BME280;33780;51.034;7.120;2022-10-31T08:24:55;101238.53;;;12.82;76.43
48015;BME280;33780;51.034;7.120;2022-10-31T08:27:20;101238.41;;;12.84;76.61
48015;BME280;33780;51.034;7.120;2022-10-31T08:29:45;101229.34;;;12.85;76.85
48015;BME280;33780;51.034;7.120;2022-10-31T08:32:11;101228.50;;;12.84;76.76
48015;BME280;33780;51.034;7.120;2022-10-31T08:34:36;101219.31;;;12.87;76.56
48015;BME280;33780;51.034;7.120;2022-10-31T08:37:01;101213.81;;;12.88;76.82
48015;BME280;33780;51.034;7.120;2022-10-31T08:39:27;101207.31;;;12.91;76.46
48015;BME280;33780;51.034;7.120;2022-10-31T08:41:52;101200.97;;;12.92;76.90
48015;BME280;33780;51.034;7.120;2022-10-31T08:44:17;101204.25;;;12.95;76.57
48015;BME280;33780;51.034;7.120;2022-10-31T08:46:42;101205.81;;;12.98;77.01
48015;BME280;33780;51.034;7.120;2022-10-31T08:49:08;101197.63;;;12.99;77.03
48015;BME280;33780;51.034;7.120;2022-10-31T08:51:33;101200.03;;;13.02;77.01
48015;BME280;33780;51.034;7.120;2022-10-31T08:53:58;101192.53;;;13.06;77.11
48015;BME280;33780;51.034;7.120;2022-10-31T08:56:23;101195.78;;;13.10;77.09
48015;BME280;33780;51.034;7.120;2022-10-31T08:58:49;101191.03;;;13.13;77.31
48015;BME280;33780;51.034;7.120;2022-10-31T09:01:16;101188.91;;;13.17;77.18
48015;BME280;33780;51.034;7.120;2022-10-31T09:03:41;101189.50;;;13.20;77.26
48015;BME280;33780;51.034;7.120;2022-10-31T09:06:06;101190.09;;;13.24;77.63
48015;BME280;33780;51.034;7.120;2022-10-31T09:08:34;101183.44;;;13.28;77.18
48015;BME280;33780;51.034;7.120;2022-10-31T09:10:59;101182.19;;;13.32;77.56
48015;BME280;33780;51.034;7.120;2022-10-31T09:13:25;101184.47;;;13.37;77.70
48015;BME280;33780;51.034;7.120;2022-10-31T09:15:51;101189.41;;;13.41;77.27
48015;BME280;33780;51.034;7.120;2022-10-31T09:18:19;101181.91;;;13.45;77.51
48015;BME280;33780;51.034;7.120;2022-10-31T09:20:45;101192.28;;;13.49;77.87
48015;BME280;33780;51.034;7.120;2022-10-31T09:23:16;101188.31;;;13.53;77.53
48015;BME280;33780;51.034;7.120;2022-10-31T09:25:42;101172.75;;;13.57;77.47
48015;BME280;33780;51.034;7.120;2022-10-31T09:28:11;101175.00;;;13.61;77.78
48015;BME280;33780;51.034;7.120;2022-10-31T09:30:36;101169.38;;;13.65;77.82
48015;BME280;33780;51.034;7.120;2022-10-31T09:33:08;101178.72;;;13.70;77.91
48015;BME280;33780;51.034;7.120;2022-10-31T09:35:34;101166.81;;;13.73;77.76
48015;BME280;33780;51.034;7.120;2022-10-31T09:38:05;101176.16;;;13.78;77.70
48015;BME280;33780;51.034;7.120;2022-10-31T09:40:37;101169.53;;;13.82;77.73
48015;BME280;33780;51.034;7.120;2022-10-31T09:43:06;101171.78;;;13.87;77.95
48015;BME280;33780;51.034;7.120;2022-10-31T09:45:41;101158.03;;;13.90;78.00
48015;BME280;33780;51.034;7.120;2022-10-31T09:50:56;101158.16;;;13.98;78.27
48015;BME280;33780;51.034;7.120;2022-10-31T09:53:38;101151.53;;;14.02;78.27
48015;BME280;33780;51.034;7.120;2022-10-31T09:56:12;101148.41;;;14.07;78.92
48015;BME280;33780;51.034;7.120;2022-10-31T09:58:52;101146.25;;;14.10;79.33
48015;BME280;33780;51.034;7.120;2022-10-31T10:01:39;101142.97;;;14.16;78.95
48015;BME280;33780;51.034;7.120;2022-10-31T10:04:21;101137.88;;;14.23;79.34
48015;BME280;33780;51.034;7.120;2022-10-31T10:06:52;101130.75;;;14.32;79.69
48015;BME280;33780;51.034;7.120;2022-10-31T10:09:21;101116.44;;;14.41;79.47
48015;BME280;33780;51.034;7.120;2022-10-31T10:12:07;101117.97;;;14.53;79.86
48015;BME280;33780;51.034;7.120;2022-10-31T10:20:42;101105.34;;;14.91;79.74
48015;BME280;33780;51.034;7.120;2022-10-31T10:23:35;101101.41;;;15.03;79.50
48015;BME280;33780;51.034;7.120;2022-10-31T10:28:39;101100.13;;;15.25;79.45
48015;BME280;33780;51.034;7.120;2022-10-31T10:31:14;101098.22;;;15.35;79.27
48015;BME280;33780;51.034;7.120;2022-10-31T10:33:44;101096.44;;;15.43;78.48
48015;BME280;33780;51.034;7.120;2022-10-31T10:36:20;101090.69;;;15.56;78.72
48015;BME280;33780;51.034;7.120;2022-10-31T10:38:58;101090.78;;;15.64;78.51
48015;BME280;33780;51.034;7.120;2022-10-31T10:41:32;101079.75;;;15.76;78.38
48015;BME280;33780;51.034;7.120;2022-10-31T10:43:58;101083.38;;;15.84;78.45
48015;BME280;33780;51.034;7.120;2022-10-31T10:46:40;101076.00;;;15.94;78.22
48015;BME280;33780;51.034;7.120;2022-10-31T10:49:40;101061.41;;;16.05;77.86
48015;BME280;33780;51.034;7.120;2022-10-31T10:57:58;101058.66;;;16.23;77.06
48015;BME280;33780;51.034;7.120;2022-10-31T11:00:45;101061.88;;;16.26;76.49
48015;BME280;33780;51.034;7.120;2022-10-31T11:03:16;101050.41;;;16.32;76.81
48015;BME280;33780;51.034;7.120;2022-10-31T11:05:47;101043.53;;;16.38;76.49
48015;BME280;33780;51.034;7.120;2022-10-31T11:08:25;101029.53;;;16.43;75.77
48015;BME280;33780;51.034;7.120;2022-10-31T11:13:57;101017.91;;;16.50;75.88
48015;BME280;33780;51.034;7.120;2022-10-31T11:16:35;101026.41;;;16.55;75.60
48015;BME280;33780;51.034;7.120;2022-10-31T11:19:24;101028.75;;;16.58;75.37
48015;BME280;33780;51.034;7.120;2022-10-31T11:21:53;101025.91;;;16.60;75.46
48015;BME280;33780;51.034;7.120;2022-10-31T11:24:21;101024.56;;;16.64;75.17
48015;BME280;33780;51.034;7.120;2022-10-31T11:26:49;101026.13;;;16.67;75.31
48015;BME280;33780;51.034;7.120;2022-10-31T11:29:34;101009.44;;;16.71;75.04
48015;BME280;33780;51.034;7.120;2022-10-31T11:32:01;101010.94;;;16.74;74.96
48015;BME280;33780;51.034;7.120;2022-10-31T11:34:32;101003.34;;;16.77;74.09
48015;BME280;33780;51.034;7.120;2022-10-31T11:37:17;101003.88;;;16.81;73.67
48015;BME280;33780;51.034;7.120;2022-10-31T11:39:46;101005.38;;;16.83;74.16
48015;BME280;33780;51.034;7.120;2022-10-31T11:42:20;101005.22;;;16.85;74.28
48015;BME280;33780;51.034;7.120;2022-10-31T11:44:46;101001.19;;;16.89;73.78
48015;BME280;33780;51.034;7.120;2022-10-31T11:47:15;100996.28;;;16.92;74.10
48015;BME280;33780;51.034;7.120;2022-10-31T11:49:44;100993.09;;;16.97;73.60
48015;BME280;33780;51.034;7.120;2022-10-31T11:52:20;100987.84;;;17.04;73.58
48015;BME280;33780;51.034;7.120;2022-10-31T11:55:13;100979.94;;;17.10;73.88
48015;BME280;33780;51.034;7.120;2022-10-31T11:57:44;100984.66;;;17.16;73.33
48015;BME280;33780;51.034;7.120;2022-10-31T12:00:22;100973.16;;;17.22;72.99
48015;BME280;33780;51.034;7.120;2022-10-31T12:02:48;100964.56;;;17.27;73.33
48015;BME280;33780;51.034;7.120;2022-10-31T12:05:30;100960.16;;;17.34;72.20
48015;BME280;33780;51.034;7.120;2022-10-31T12:07:58;100955.91;;;17.40;72.35
48015;BME280;33780;51.034;7.120;2022-10-31T12:10:30;100958.13;;;17.44;72.32
48015;BME280;33780;51.034;7.120;2022-10-31T12:15:54;100944.56;;;17.52;72.01
48015;BME280;33780;51.034;7.120;2022-10-31T12:21:29;100935.09;;;17.57;71.43
48015;BME280;33780;51.034;7.120;2022-10-31T12:24:07;100935.59;;;17.60;71.68
48015;BME280;33780;51.034;7.120;2022-10-31T12:26:54;100933.75;;;17.61;71.43
48015;BME280;33780;51.034;7.120;2022-10-31T12:43:32;100897.88;;;17.67;70.45
48015;BME280;33780;51.034;7.120;2022-10-31T12:46:02;100886.88;;;17.68;70.70
48015;BME280;33780;51.034;7.120;2022-10-31T12:48:32;100896.69;;;17.69;70.32
48015;BME280;33780;51.034;7.120;2022-10-31T12:59:19;100859.63;;;17.78;70.11
48015;BME280;33780;51.034;7.120;2022-10-31T13:01:51;100855.38;;;17.75;68.04
48015;BME280;33780;51.034;7.120;2022-10-31T13:04:38;100855.91;;;17.79;69.67
48015;BME280;33780;51.034;7.120;2022-10-31T13:07:11;100839.47;;;17.80;69.23
48015;BME280;33780;51.034;7.120;2022-10-31T13:10:05;100832.88;;;17.83;69.45
48015;BME280;33780;51.034;7.120;2022-10-31T13:12:33;100829.50;;;17.81;68.20
48015;BME280;33780;51.034;7.120;2022-10-31T13:15:11;100821.03;;;17.84;68.88
48015;BME280;33780;51.034;7.120;2022-10-31T13:17:59;100820.66;;;17.87;68.35
48015;BME280;33780;51.034;7.120;2022-10-31T13:20:38;100808.81;;;17.88;68.96
48015;BME280;33780;51.034;7.120;2022-10-31T13:23:29;100804.22;;;17.89;69.21
48015;BME280;33780;51.034;7.120;2022-10-31T13:25:56;100798.63;;;17.90;68.49
48015;BME280;33780;51.034;7.120;2022-10-31T13:28:43;100802.84;;;17.93;68.85
48015;BME280;33780;51.034;7.120;2022-10-31T13:31:09;100793.69;;;17.94;68.87
48015;BME280;33780;51.034;7.120;2022-10-31T13:33:44;100785.41;;;17.95;68.70
48015;BME280;33780;51.034;7.120;2022-10-31T13:38:51;100774.91;;;18.00;68.14
48015;BME280;33780;51.034;7.120;2022-10-31T13:44:37;100771.47;;;18.06;68.19
48015;BME280;33780;51.034;7.120;2022-10-31T13:47:26;100771.09;;;18.09;68.15
48015;BME280;33780;51.034;7.120;2022-10-31T13:50:20;100774.47;;;18.11;68.21
48015;BME280;33780;51.034;7.120;2022-10-31T13:52:48;100770.91;;;18.11;68.07
48015;BME280;33780;51.034;7.120;2022-10-31T13:55:36;100777.34;;;18.10;67.91
48015;BME280;33780;51.034;7.120;2022-10-31T13:58:25;100773.81;;;18.09;67.55
48015;BME280;33780;51.034;7.120;2022-10-31T14:01:20;100774.66;;;18.10;67.68
48015;BME280;33780;51.034;7.120;2022-10-31T14:03:55;100769.59;;;18.07;67.39
48015;BME280;33780;51.034;7.120;2022-10-31T14:06:22;100763.16;;;18.08;67.27
48015;BME280;33780;51.034;7.120;2022-10-31T14:08:51;100753.34;;;18.07;67.50
48015;BME280;33780;51.034;7.120;2022-10-31T14:11:24;100756.06;;;18.07;67.64
48015;BME280;33780;51.034;7.120;2022-10-31T14:13:52;100758.09;;;18.05;67.53
48015;BME280;33780;51.034;7.120;2022-10-31T14:16:29;100750.81;;;18.05;67.82
48015;BME280;33780;51.034;7.120;2022-10-31T14:19:04;100745.59;;;18.04;67.55
48015;BME280;33780;51.034;7.120;2022-10-31T14:21:38;100733.91;;;18.03;67.15
48015;BME280;33780;51.034;7.120;2022-10-31T14:24:12;100733.06;;;18.03;67.48
48015;BME280;33780;51.034;7.120;2022-10-31T14:26:38;100732.22;;;18.02;67.37
48015;BME280;33780;51.034;7.120;2022-10-31T14:31:45;100686.38;;;18.01;67.16
48015;BME280;33780;51.034;7.120;2022-10-31T14:34:37;100706.16;;;18.01;67.19
48015;BME280;33780;51.034;7.120;2022-10-31T14:50:52;100685.53;;;18.00;66.25